sensor_id;sensor_type;location;lat;lon;timestamp;P1;durP1;ratioP1;P2;durP2;ratioP2
31760;SDS011;18335;51.486;7.562;2022-08-06T00:01:06;7.05;;;1.70;;
31760;SDS011;18335;51.486;7.562;2022-08-06T00:03:34;5.40;;;1.70;;
31760;SDS011;18335;51.486;7.562;2022-08-06T00:06:01;5.32;;;2.33;;
31760;SDS011;18335;51.486;7.562;2022-08-06T00:08:28;3.78;;;1.42;;
31760;SDS011;18335;51.486;7.562;2022-08-06T00:10:55;5.03;;;1.63;;
31760;SDS011;18335;51.486;7.562;2022-08-06T00:13:22;5.93;;;1.60;;
31760;SDS011;18335;51.486;7.562;2022-08-06T00:15:48;4.63;;;1.15;;
31760;SDS011;18335;51.486;7.562;2022-08-06T00:18:15;7.03;;;1.70;;
31760;SDS011;18335;51.486;7.562;2022-08-06T00:20:43;10.02;;;3.83;;
31760;SDS011;18335;51.486;7.562;2022-08-06T00:23:10;4.70;;;1.58;;
31760;SDS011;18335;51.486;7.562;2022-08-06T00:25:37;5.65;;;1.75;;
31760;SDS011;18335;51.486;7.562;2022-08-06T00:28:04;5.32;;;1.70;;
31760;SDS011;18335;51.486;7.562;2022-08-06T00:30:30;6.47;;;1.70;;
31760;SDS011;18335;51.486;7.562;2022-08-06T00:32:57;8.60;;;1.70;;
31760;SDS011;18335;51.486;7.562;2022-08-06T00:35:24;3.45;;;1.58;;
31760;SDS011;18335;51.486;7.562;2022-08-06T00:37:52;2.78;;;1.40;;
31760;SDS011;18335;51.486;7.562;2022-08-06T00:40:19;2.92;;;1.38;;
31760;SDS011;18335;51.486;7.562;2022-08-06T00:42:47;4.00;;;1.50;;
31760;SDS011;18335;51.486;7.562;2022-08-06T00:45:15;5.95;;;1.90;;
31760;SDS011;18335;51.486;7.562;2022-08-06T00:47:42;7.22;;;2.53;;
31760;SDS011;18335;51.486;7.562;2022-08-06T00:50:09;5.25;;;1.75;;
31760;SDS011;18335;51.486;7.562;2022-08-06T00:52:35;5.47;;;1.58;;
31760;SDS011;18335;51.486;7.562;2022-08-06T00:55:04;3.53;;;1.58;;
31760;SDS011;18335;51.486;7.562;2022-08-06T00:57:32;5.95;;;1.63;;
31760;SDS011;18335;51.486;7.562;2022-08-06T00:59:58;3.65;;;1.40;;
31760;SDS011;18335;51.486;7.562;2022-08-06T01:02:25;4.55;;;1.35;;
31760;SDS011;18335;51.486;7.562;2022-08-06T01:04:52;6.45;;;1.70;;
31760;SDS011;18335;51.486;7.562;2022-08-06T01:07:19;3.95;;;1.25;;
31760;SDS011;18335;51.486;7.562;2022-08-06T01:09:45;4.90;;;1.90;;
31760;SDS011;18335;51.486;7.562;2022-08-06T01:12:13;5.70;;;1.58;;
31760;SDS011;18335;51.486;7.562;2022-08-06T01:14:40;7.00;;;1.52;;
31760;SDS011;18335;51.486;7.562;2022-08-06T01:17:08;3.28;;;1.35;;
31760;SDS011;18335;51.486;7.562;2022-08-06T01:19:44;2.65;;;1.67;;
31760;SDS011;18335;51.486;7.562;2022-08-06T01:22:32;4.97;;;1.95;;
31760;SDS011;18335;51.486;7.562;2022-08-06T01:28:14;5.85;;;1.50;;
31760;SDS011;18335;51.486;7.562;2022-08-06T01:30:48;2.85;;;1.25;;
31760;SDS011;18335;51.486;7.562;2022-08-06T01:33:19;4.13;;;1.55;;
31760;SDS011;18335;51.486;7.562;2022-08-06T01:35:51;7.05;;;1.50;;
31760;SDS011;18335;51.486;7.562;2022-08-06T01:38:22;6.38;;;1.55;;
31760;SDS011;18335;51.486;7.562;2022-08-06T01:40:53;8.30;;;2.95;;
31760;SDS011;18335;51.486;7.562;2022-08-06T01:43:25;4.03;;;1.10;;
31760;SDS011;18335;51.486;7.562;2022-08-06T01:45:54;2.72;;;1.70;;
31760;SDS011;18335;51.486;7.562;2022-08-06T01:48:24;6.47;;;1.27;;
31760;SDS011;18335;51.486;7.562;2022-08-06T01:50:54;2.38;;;1.13;;
31760;SDS011;18335;51.486;7.562;2022-08-06T01:53:25;6.97;;;1.30;;
31760;SDS011;18335;51.486;7.562;2022-08-06T01:55:56;4.05;;;1.27;;
31760;SDS011;18335;51.486;7.562;2022-08-06T01:58:29;4.97;;;1.30;;
31760;SDS011;18335;51.486;7.562;2022-08-06T02:01:00;3.63;;;1.40;;
31760;SDS011;18335;51.486;7.562;2022-08-06T02:03:30;4.40;;;1.67;;
31760;SDS011;18335;51.486;7.562;2022-08-06T02:05:59;4.40;;;1.50;;
31760;SDS011;18335;51.486;7.562;2022-08-06T02:08:29;3.85;;;1.42;;
31760;SDS011;18335;51.486;7.562;2022-08-06T02:10:58;4.05;;;1.55;;
31760;SDS011;18335;51.486;7.562;2022-08-06T02:13:29;3.58;;;1.48;;
31760;SDS011;18335;51.486;7.562;2022-08-06T02:15:59;4.15;;;1.60;;
31760;SDS011;18335;51.486;7.562;2022-08-06T02:18:29;6.18;;;1.40;;
31760;SDS011;18335;51.486;7.562;2022-08-06T02:20:58;4.35;;;1.35;;
31760;SDS011;18335;51.486;7.562;2022-08-06T02:23:28;5.22;;;1.30;;
31760;SDS011;18335;51.486;7.562;2022-08-06T02:25:57;3.95;;;1.58;;
31760;SDS011;18335;51.486;7.562;2022-08-06T02:28:24;7.18;;;1.70;;
31760;SDS011;18335;51.486;7.562;2022-08-06T02:30:56;3.42;;;1.48;;
31760;SDS011;18335;51.486;7.562;2022-08-06T02:33:24;3.20;;;1.48;;
31760;SDS011;18335;51.486;7.562;2022-08-06T02:35:52;7.18;;;1.65;;
31760;SDS011;18335;51.486;7.562;2022-08-06T02:38:26;4.82;;;1.52;;
31760;SDS011;18335;51.486;7.562;2022-08-06T02:40:59;5.03;;;1.45;;
31760;SDS011;18335;51.486;7.562;2022-08-06T02:43:30;3.85;;;1.60;;
31760;SDS011;18335;51.486;7.562;2022-08-06T02:46:02;4.78;;;1.60;;
31760;SDS011;18335;51.486;7.562;2022-08-06T02:48:35;2.97;;;1.27;;
31760;SDS011;18335;51.486;7.562;2022-08-06T02:51:08;3.97;;;1.25;;
31760;SDS011;18335;51.486;7.562;2022-08-06T02:53:39;5.97;;;1.73;;
31760;SDS011;18335;51.486;7.562;2022-08-06T02:56:13;5.50;;;1.48;;
31760;SDS011;18335;51.486;7.562;2022-08-06T02:58:42;6.78;;;1.73;;
31760;SDS011;18335;51.486;7.562;2022-08-06T03:01:14;6.70;;;1.23;;
31760;SDS011;18335;51.486;7.562;2022-08-06T03:03:42;5.70;;;1.58;;
31760;SDS011;18335;51.486;7.562;2022-08-06T03:06:11;5.28;;;1.08;;
31760;SDS011;18335;51.486;7.562;2022-08-06T03:08:41;3.83;;;1.30;;
31760;SDS011;18335;51.486;7.562;2022-08-06T03:11:08;3.70;;;1.23;;
31760;SDS011;18335;51.486;7.562;2022-08-06T03:13:37;2.95;;;1.30;;
31760;SDS011;18335;51.486;7.562;2022-08-06T03:16:05;3.67;;;1.20;;
31760;SDS011;18335;51.486;7.562;2022-08-06T03:18:34;5.22;;;1.73;;
31760;SDS011;18335;51.486;7.562;2022-08-06T03:21:03;4.85;;;1.33;;
31760;SDS011;18335;51.486;7.562;2022-08-06T03:23:31;4.43;;;1.27;;
31760;SDS011;18335;51.486;7.562;2022-08-06T03:25:59;4.63;;;1.45;;
31760;SDS011;18335;51.486;7.562;2022-08-06T03:28:26;2.03;;;1.20;;
31760;SDS011;18335;51.486;7.562;2022-08-06T03:30:54;5.38;;;1.50;;
31760;SDS011;18335;51.486;7.562;2022-08-06T03:33:21;4.22;;;1.40;;
31760;SDS011;18335;51.486;7.562;2022-08-06T03:35:51;7.15;;;2.40;;
31760;SDS011;18335;51.486;7.562;2022-08-06T03:38:19;5.07;;;1.38;;
31760;SDS011;18335;51.486;7.562;2022-08-06T03:40:47;4.50;;;1.85;;
31760;SDS011;18335;51.486;7.562;2022-08-06T03:43:15;5.40;;;2.08;;
31760;SDS011;18335;51.486;7.562;2022-08-06T03:45:44;3.83;;;1.40;;
31760;SDS011;18335;51.486;7.562;2022-08-06T03:48:15;3.33;;;1.55;;
31760;SDS011;18335;51.486;7.562;2022-08-06T03:50:47;3.55;;;1.10;;
31760;SDS011;18335;51.486;7.562;2022-08-06T03:53:18;3.15;;;1.75;;
31760;SDS011;18335;51.486;7.562;2022-08-06T03:55:48;3.45;;;1.40;;
31760;SDS011;18335;51.486;7.562;2022-08-06T03:58:16;3.53;;;1.33;;
31760;SDS011;18335;51.486;7.562;2022-08-06T04:00:46;6.40;;;1.48;;
31760;SDS011;18335;51.486;7.562;2022-08-06T04:03:17;4.78;;;1.70;;
31760;SDS011;18335;51.486;7.562;2022-08-06T04:05:45;3.58;;;1.98;;
31760;SDS011;18335;51.486;7.562;2022-08-06T04:08:13;3.30;;;1.50;;
31760;SDS011;18335;51.486;7.562;2022-08-06T04:10:42;5.20;;;1.63;;
31760;SDS011;18335;51.486;7.562;2022-08-06T04:13:12;7.40;;;1.75;;
31760;SDS011;18335;51.486;7.562;2022-08-06T04:15:41;5.60;;;2.00;;
31760;SDS011;18335;51.486;7.562;2022-08-06T04:18:09;7.65;;;1.70;;
31760;SDS011;18335;51.486;7.562;2022-08-06T04:20:38;4.20;;;1.60;;
31760;SDS011;18335;51.486;7.562;2022-08-06T04:23:07;3.90;;;1.50;;
31760;SDS011;18335;51.486;7.562;2022-08-06T04:25:36;4.90;;;1.60;;
31760;SDS011;18335;51.486;7.562;2022-08-06T04:28:07;4.30;;;1.67;;
31760;SDS011;18335;51.486;7.562;2022-08-06T04:30:37;6.50;;;2.65;;
31760;SDS011;18335;51.486;7.562;2022-08-06T04:33:06;7.50;;;2.03;;
31760;SDS011;18335;51.486;7.562;2022-08-06T04:35:37;4.97;;;1.73;;
31760;SDS011;18335;51.486;7.562;2022-08-06T04:38:05;5.45;;;1.92;;
31760;SDS011;18335;51.486;7.562;2022-08-06T04:40:33;5.68;;;1.83;;
31760;SDS011;18335;51.486;7.562;2022-08-06T04:43:00;2.97;;;1.45;;
31760;SDS011;18335;51.486;7.562;2022-08-06T04:45:28;4.35;;;2.00;;
31760;SDS011;18335;51.486;7.562;2022-08-06T04:47:55;5.10;;;1.65;;
31760;SDS011;18335;51.486;7.562;2022-08-06T04:50:23;8.10;;;1.95;;
31760;SDS011;18335;51.486;7.562;2022-08-06T04:52:50;3.60;;;1.67;;
31760;SDS011;18335;51.486;7.562;2022-08-06T04:55:18;4.72;;;1.88;;
31760;SDS011;18335;51.486;7.562;2022-08-06T04:57:45;4.43;;;1.90;;
31760;SDS011;18335;51.486;7.562;2022-08-06T05:00:12;7.70;;;2.45;;
31760;SDS011;18335;51.486;7.562;2022-08-06T05:02:41;9.88;;;2.13;;
31760;SDS011;18335;51.486;7.562;2022-08-06T05:05:08;5.05;;;1.88;;
31760;SDS011;18335;51.486;7.562;2022-08-06T05:07:38;8.80;;;2.35;;
31760;SDS011;18335;51.486;7.562;2022-08-06T05:10:06;8.27;;;2.08;;
31760;SDS011;18335;51.486;7.562;2022-08-06T05:12:36;7.03;;;2.42;;
31760;SDS011;18335;51.486;7.562;2022-08-06T05:15:09;5.00;;;2.25;;
31760;SDS011;18335;51.486;7.562;2022-08-06T05:17:43;7.43;;;2.85;;
31760;SDS011;18335;51.486;7.562;2022-08-06T05:20:15;7.00;;;2.45;;
31760;SDS011;18335;51.486;7.562;2022-08-06T05:22:44;5.20;;;2.50;;
31760;SDS011;18335;51.486;7.562;2022-08-06T05:25:15;5.60;;;2.08;;
31760;SDS011;18335;51.486;7.562;2022-08-06T05:27:42;3.92;;;2.20;;
31760;SDS011;18335;51.486;7.562;2022-08-06T05:30:10;8.70;;;2.90;;
31760;SDS011;18335;51.486;7.562;2022-08-06T05:32:40;7.75;;;3.00;;
31760;SDS011;18335;51.486;7.562;2022-08-06T05:35:09;9.52;;;3.70;;
31760;SDS011;18335;51.486;7.562;2022-08-06T05:37:36;7.38;;;3.40;;
31760;SDS011;18335;51.486;7.562;2022-08-06T05:40:04;7.30;;;3.60;;
31760;SDS011;18335;51.486;7.562;2022-08-06T05:42:33;10.35;;;4.07;;
31760;SDS011;18335;51.486;7.562;2022-08-06T05:45:00;7.47;;;3.40;;
31760;SDS011;18335;51.486;7.562;2022-08-06T05:47:27;7.68;;;3.60;;
31760;SDS011;18335;51.486;7.562;2022-08-06T05:50:00;9.07;;;3.28;;
31760;SDS011;18335;51.486;7.562;2022-08-06T05:52:34;9.52;;;3.75;;
31760;SDS011;18335;51.486;7.562;2022-08-06T05:55:08;7.35;;;2.70;;
31760;SDS011;18335;51.486;7.562;2022-08-06T05:57:42;10.52;;;3.17;;
31760;SDS011;18335;51.486;7.562;2022-08-06T06:00:15;7.75;;;3.47;;
31760;SDS011;18335;51.486;7.562;2022-08-06T06:02:44;5.72;;;3.20;;
31760;SDS011;18335;51.486;7.562;2022-08-06T06:05:14;8.60;;;3.15;;
31760;SDS011;18335;51.486;7.562;2022-08-06T06:07:41;8.60;;;3.00;;
31760;SDS011;18335;51.486;7.562;2022-08-06T06:10:09;8.75;;;3.30;;
31760;SDS011;18335;51.486;7.562;2022-08-06T06:12:38;6.65;;;3.25;;
31760;SDS011;18335;51.486;7.562;2022-08-06T06:15:06;8.27;;;3.13;;
31760;SDS011;18335;51.486;7.562;2022-08-06T06:17:54;7.45;;;3.10;;
31760;SDS011;18335;51.486;7.562;2022-08-06T06:20:31;7.75;;;3.75;;
31760;SDS011;18335;51.486;7.562;2022-08-06T06:23:06;8.43;;;3.60;;
31760;SDS011;18335;51.486;7.562;2022-08-06T06:25:40;10.17;;;3.27;;
31760;SDS011;18335;51.486;7.562;2022-08-06T06:28:14;10.20;;;3.97;;
31760;SDS011;18335;51.486;7.562;2022-08-06T06:30:50;9.90;;;5.13;;
31760;SDS011;18335;51.486;7.562;2022-08-06T06:33:25;10.85;;;4.43;;
31760;SDS011;18335;51.486;7.562;2022-08-06T06:35:59;11.35;;;5.10;;
31760;SDS011;18335;51.486;7.562;2022-08-06T06:38:31;10.35;;;4.28;;
31760;SDS011;18335;51.486;7.562;2022-08-06T06:41:07;8.95;;;3.20;;
31760;SDS011;18335;51.486;7.562;2022-08-06T06:43:40;12.70;;;3.30;;
31760;SDS011;18335;51.486;7.562;2022-08-06T06:46:13;9.00;;;2.53;;
31760;SDS011;18335;51.486;7.562;2022-08-06T06:48:45;7.20;;;2.90;;
31760;SDS011;18335;51.486;7.562;2022-08-06T06:51:18;8.73;;;2.85;;
31760;SDS011;18335;51.486;7.562;2022-08-06T06:53:50;10.45;;;3.03;;
31760;SDS011;18335;51.486;7.562;2022-08-06T06:56:21;6.47;;;2.40;;
31760;SDS011;18335;51.486;7.562;2022-08-06T06:58:52;9.68;;;2.25;;
31760;SDS011;18335;51.486;7.562;2022-08-06T07:01:24;9.98;;;2.20;;
31760;SDS011;18335;51.486;7.562;2022-08-06T07:03:52;7.80;;;2.00;;
31760;SDS011;18335;51.486;7.562;2022-08-06T07:06:22;7.13;;;2.10;;
31760;SDS011;18335;51.486;7.562;2022-08-06T07:08:50;7.93;;;1.70;;
31760;SDS011;18335;51.486;7.562;2022-08-06T07:11:18;4.78;;;1.63;;
31760;SDS011;18335;51.486;7.562;2022-08-06T07:13:47;8.48;;;1.25;;
31760;SDS011;18335;51.486;7.562;2022-08-06T07:16:16;3.72;;;1.95;;
31760;SDS011;18335;51.486;7.562;2022-08-06T07:18:44;8.75;;;2.05;;
31760;SDS011;18335;51.486;7.562;2022-08-06T07:21:14;7.22;;;1.50;;
31760;SDS011;18335;51.486;7.562;2022-08-06T07:23:44;3.00;;;1.33;;
31760;SDS011;18335;51.486;7.562;2022-08-06T07:26:14;3.75;;;1.42;;
31760;SDS011;18335;51.486;7.562;2022-08-06T07:28:43;2.70;;;1.42;;
31760;SDS011;18335;51.486;7.562;2022-08-06T07:31:11;7.60;;;1.52;;
31760;SDS011;18335;51.486;7.562;2022-08-06T07:33:40;7.70;;;1.75;;
31760;SDS011;18335;51.486;7.562;2022-08-06T07:36:09;5.13;;;1.40;;
31760;SDS011;18335;51.486;7.562;2022-08-06T07:38:37;6.85;;;1.42;;
31760;SDS011;18335;51.486;7.562;2022-08-06T07:41:09;7.32;;;1.92;;
31760;SDS011;18335;51.486;7.562;2022-08-06T07:43:38;5.75;;;2.28;;
31760;SDS011;18335;51.486;7.562;2022-08-06T07:46:10;7.60;;;1.92;;
31760;SDS011;18335;51.486;7.562;2022-08-06T07:48:41;7.78;;;1.88;;
31760;SDS011;18335;51.486;7.562;2022-08-06T07:51:11;5.35;;;1.30;;
31760;SDS011;18335;51.486;7.562;2022-08-06T07:53:39;6.60;;;1.50;;
31760;SDS011;18335;51.486;7.562;2022-08-06T07:56:09;5.88;;;1.00;;
31760;SDS011;18335;51.486;7.562;2022-08-06T07:58:37;6.18;;;1.20;;
31760;SDS011;18335;51.486;7.562;2022-08-06T08:01:05;4.10;;;1.50;;
31760;SDS011;18335;51.486;7.562;2022-08-06T08:03:32;3.40;;;0.80;;
31760;SDS011;18335;51.486;7.562;2022-08-06T08:06:18;6.38;;;0.80;;
31760;SDS011;18335;51.486;7.562;2022-08-06T08:08:48;2.58;;;0.60;;
31760;SDS011;18335;51.486;7.562;2022-08-06T08:11:19;4.72;;;0.77;;
31760;SDS011;18335;51.486;7.562;2022-08-06T08:13:49;7.47;;;1.40;;
31760;SDS011;18335;51.486;7.562;2022-08-06T08:16:18;6.22;;;0.93;;
31760;SDS011;18335;51.486;7.562;2022-08-06T08:18:46;5.15;;;1.00;;
31760;SDS011;18335;51.486;7.562;2022-08-06T08:21:13;3.95;;;0.90;;
31760;SDS011;18335;51.486;7.562;2022-08-06T08:23:41;6.72;;;1.33;;
31760;SDS011;18335;51.486;7.562;2022-08-06T08:26:09;9.35;;;1.05;;
31760;SDS011;18335;51.486;7.562;2022-08-06T08:28:37;6.25;;;0.65;;
31760;SDS011;18335;51.486;7.562;2022-08-06T08:31:04;4.07;;;0.70;;
31760;SDS011;18335;51.486;7.562;2022-08-06T08:33:34;4.88;;;1.08;;
31760;SDS011;18335;51.486;7.562;2022-08-06T08:36:01;3.90;;;0.55;;
31760;SDS011;18335;51.486;7.562;2022-08-06T08:38:28;4.47;;;0.68;;
31760;SDS011;18335;51.486;7.562;2022-08-06T08:40:57;5.68;;;0.80;;
31760;SDS011;18335;51.486;7.562;2022-08-06T08:43:29;2.60;;;1.08;;
31760;SDS011;18335;51.486;7.562;2022-08-06T08:46:00;1.80;;;0.65;;
31760;SDS011;18335;51.486;7.562;2022-08-06T08:48:28;3.97;;;0.80;;
31760;SDS011;18335;51.486;7.562;2022-08-06T08:50:58;6.32;;;0.90;;
31760;SDS011;18335;51.486;7.562;2022-08-06T08:53:28;8.00;;;2.47;;
31760;SDS011;18335;51.486;7.562;2022-08-06T08:55:59;3.40;;;0.70;;
31760;SDS011;18335;51.486;7.562;2022-08-06T08:58:27;3.17;;;0.80;;
31760;SDS011;18335;51.486;7.562;2022-08-06T09:00:57;3.47;;;0.70;;
31760;SDS011;18335;51.486;7.562;2022-08-06T09:03:25;2.20;;;0.85;;
31760;SDS011;18335;51.486;7.562;2022-08-06T09:05:53;6.53;;;0.70;;
31760;SDS011;18335;51.486;7.562;2022-08-06T09:08:21;1.40;;;0.52;;
31760;SDS011;18335;51.486;7.562;2022-08-06T09:10:48;1.95;;;0.40;;
31760;SDS011;18335;51.486;7.562;2022-08-06T09:13:14;1.90;;;0.50;;
31760;SDS011;18335;51.486;7.562;2022-08-06T09:15:41;4.13;;;0.70;;
31760;SDS011;18335;51.486;7.562;2022-08-06T09:18:08;3.13;;;0.55;;
31760;SDS011;18335;51.486;7.562;2022-08-06T09:20:36;4.60;;;0.82;;
31760;SDS011;18335;51.486;7.562;2022-08-06T09:23:03;3.55;;;0.70;;
31760;SDS011;18335;51.486;7.562;2022-08-06T09:25:37;0.93;;;0.50;;
31760;SDS011;18335;51.486;7.562;2022-08-06T09:28:09;4.15;;;0.70;;
31760;SDS011;18335;51.486;7.562;2022-08-06T09:30:37;4.40;;;0.70;;
31760;SDS011;18335;51.486;7.562;2022-08-06T09:33:10;3.58;;;0.60;;
31760;SDS011;18335;51.486;7.562;2022-08-06T09:35:39;2.40;;;0.80;;
31760;SDS011;18335;51.486;7.562;2022-08-06T09:38:06;3.28;;;0.52;;
31760;SDS011;18335;51.486;7.562;2022-08-06T09:40:34;2.42;;;0.82;;
31760;SDS011;18335;51.486;7.562;2022-08-06T09:43:01;2.53;;;0.60;;
31760;SDS011;18335;51.486;7.562;2022-08-06T09:45:28;4.18;;;1.00;;
31760;SDS011;18335;51.486;7.562;2022-08-06T09:48:02;1.27;;;0.30;;
31760;SDS011;18335;51.486;7.562;2022-08-06T09:50:39;3.40;;;0.60;;
31760;SDS011;18335;51.486;7.562;2022-08-06T09:53:07;3.28;;;1.02;;
31760;SDS011;18335;51.486;7.562;2022-08-06T09:55:34;1.77;;;1.02;;
31760;SDS011;18335;51.486;7.562;2022-08-06T09:58:02;1.70;;;0.50;;
31760;SDS011;18335;51.486;7.562;2022-08-06T10:00:30;0.65;;;0.30;;
31760;SDS011;18335;51.486;7.562;2022-08-06T10:02:58;1.73;;;0.30;;
31760;SDS011;18335;51.486;7.562;2022-08-06T10:05:26;2.72;;;0.38;;
31760;SDS011;18335;51.486;7.562;2022-08-06T10:08:08;2.70;;;0.60;;
31760;SDS011;18335;51.486;7.562;2022-08-06T10:10:40;2.47;;;0.57;;
31760;SDS011;18335;51.486;7.562;2022-08-06T10:13:16;2.13;;;1.35;;
31760;SDS011;18335;51.486;7.562;2022-08-06T10:15:44;4.72;;;0.50;;
31760;SDS011;18335;51.486;7.562;2022-08-06T10:18:28;1.77;;;0.60;;
31760;SDS011;18335;51.486;7.562;2022-08-06T10:20:59;1.08;;;0.40;;
31760;SDS011;18335;51.486;7.562;2022-08-06T10:23:28;3.03;;;0.50;;
31760;SDS011;18335;51.486;7.562;2022-08-06T10:25:57;1.85;;;0.43;;
31760;SDS011;18335;51.486;7.562;2022-08-06T10:28:24;2.00;;;0.50;;
31760;SDS011;18335;51.486;7.562;2022-08-06T10:30:52;1.70;;;0.38;;
31760;SDS011;18335;51.486;7.562;2022-08-06T10:33:21;1.40;;;0.43;;
31760;SDS011;18335;51.486;7.562;2022-08-06T10:35:50;0.63;;;0.40;;
31760;SDS011;18335;51.486;7.562;2022-08-06T10:38:20;1.90;;;0.60;;
31760;SDS011;18335;51.486;7.562;2022-08-06T10:40:53;2.15;;;0.52;;
31760;SDS011;18335;51.486;7.562;2022-08-06T10:43:22;2.38;;;0.40;;
31760;SDS011;18335;51.486;7.562;2022-08-06T10:45:50;2.72;;;0.52;;
31760;SDS011;18335;51.486;7.562;2022-08-06T10:48:17;3.17;;;0.93;;
31760;SDS011;18335;51.486;7.562;2022-08-06T10:50:44;2.47;;;0.77;;
31760;SDS011;18335;51.486;7.562;2022-08-06T10:53:11;1.45;;;0.40;;
31760;SDS011;18335;51.486;7.562;2022-08-06T10:55:38;1.10;;;0.30;;
31760;SDS011;18335;51.486;7.562;2022-08-06T10:58:07;0.90;;;0.40;;
31760;SDS011;18335;51.486;7.562;2022-08-06T11:00:35;1.52;;;0.40;;
31760;SDS011;18335;51.486;7.562;2022-08-06T11:03:07;1.77;;;0.38;;
31760;SDS011;18335;51.486;7.562;2022-08-06T11:05:40;2.67;;;0.40;;
31760;SDS011;18335;51.486;7.562;2022-08-06T11:08:15;6.20;;;0.70;;
31760;SDS011;18335;51.486;7.562;2022-08-06T11:10:58;3.33;;;0.50;;
31760;SDS011;18335;51.486;7.562;2022-08-06T11:13:49;2.47;;;0.50;;
31760;SDS011;18335;51.486;7.562;2022-08-06T11:16:25;4.25;;;0.82;;
31760;SDS011;18335;51.486;7.562;2022-08-06T11:18:59;1.65;;;0.45;;
31760;SDS011;18335;51.486;7.562;2022-08-06T11:21:41;2.67;;;0.50;;
31760;SDS011;18335;51.486;7.562;2022-08-06T11:24:11;1.48;;;0.20;;
31760;SDS011;18335;51.486;7.562;2022-08-06T11:26:39;1.48;;;0.32;;
31760;SDS011;18335;51.486;7.562;2022-08-06T11:29:08;2.38;;;0.35;;
31760;SDS011;18335;51.486;7.562;2022-08-06T11:31:37;2.03;;;0.45;;
31760;SDS011;18335;51.486;7.562;2022-08-06T11:34:07;6.47;;;0.82;;
31760;SDS011;18335;51.486;7.562;2022-08-06T11:36:43;1.30;;;0.30;;
31760;SDS011;18335;51.486;7.562;2022-08-06T11:39:11;3.47;;;0.77;;
31760;SDS011;18335;51.486;7.562;2022-08-06T11:41:43;1.67;;;0.40;;
31760;SDS011;18335;51.486;7.562;2022-08-06T11:44:13;2.95;;;0.55;;
31760;SDS011;18335;51.486;7.562;2022-08-06T11:46:42;1.00;;;0.28;;
31760;SDS011;18335;51.486;7.562;2022-08-06T11:49:11;2.97;;;0.25;;
31760;SDS011;18335;51.486;7.562;2022-08-06T11:51:46;1.35;;;0.60;;
31760;SDS011;18335;51.486;7.562;2022-08-06T11:54:15;1.77;;;0.30;;
31760;SDS011;18335;51.486;7.562;2022-08-06T12:00:15;1.63;;;0.60;;
31760;SDS011;18335;51.486;7.562;2022-08-06T12:02:47;2.92;;;0.52;;
31760;SDS011;18335;51.486;7.562;2022-08-06T12:05:40;0.95;;;0.20;;
31760;SDS011;18335;51.486;7.562;2022-08-06T12:08:20;1.67;;;0.40;;
31760;SDS011;18335;51.486;7.562;2022-08-06T12:13:53;2.47;;;0.30;;
31760;SDS011;18335;51.486;7.562;2022-08-06T12:16:35;0.90;;;0.32;;
31760;SDS011;18335;51.486;7.562;2022-08-06T12:19:05;2.70;;;0.70;;
31760;SDS011;18335;51.486;7.562;2022-08-06T12:21:37;0.85;;;0.30;;
31760;SDS011;18335;51.486;7.562;2022-08-06T12:24:05;2.80;;;0.52;;
31760;SDS011;18335;51.486;7.562;2022-08-06T12:26:32;2.05;;;0.32;;
31760;SDS011;18335;51.486;7.562;2022-08-06T12:29:00;2.40;;;0.45;;
31760;SDS011;18335;51.486;7.562;2022-08-06T12:31:35;1.10;;;0.47;;
31760;SDS011;18335;51.486;7.562;2022-08-06T12:34:04;1.50;;;0.40;;
31760;SDS011;18335;51.486;7.562;2022-08-06T12:36:33;2.95;;;0.60;;
31760;SDS011;18335;51.486;7.562;2022-08-06T12:39:02;1.15;;;0.52;;
31760;SDS011;18335;51.486;7.562;2022-08-06T12:41:32;1.13;;;0.30;;
31760;SDS011;18335;51.486;7.562;2022-08-06T12:44:09;1.23;;;0.38;;
31760;SDS011;18335;51.486;7.562;2022-08-06T12:46:39;1.42;;;0.32;;
31760;SDS011;18335;51.486;7.562;2022-08-06T12:49:06;3.97;;;1.52;;
31760;SDS011;18335;51.486;7.562;2022-08-06T12:51:33;0.85;;;0.28;;
31760;SDS011;18335;51.486;7.562;2022-08-06T12:54:01;0.82;;;0.40;;
31760;SDS011;18335;51.486;7.562;2022-08-06T12:56:31;3.38;;;0.47;;
31760;SDS011;18335;51.486;7.562;2022-08-06T12:59:04;3.28;;;0.50;;
31760;SDS011;18335;51.486;7.562;2022-08-06T13:01:35;3.85;;;0.50;;
31760;SDS011;18335;51.486;7.562;2022-08-06T13:04:05;2.88;;;1.15;;
31760;SDS011;18335;51.486;7.562;2022-08-06T13:06:35;3.35;;;0.40;;
31760;SDS011;18335;51.486;7.562;2022-08-06T13:09:04;2.83;;;0.45;;
31760;SDS011;18335;51.486;7.562;2022-08-06T13:11:32;0.63;;;0.30;;
31760;SDS011;18335;51.486;7.562;2022-08-06T13:14:06;1.85;;;0.60;;
31760;SDS011;18335;51.486;7.562;2022-08-06T13:16:44;1.47;;;0.40;;
31760;SDS011;18335;51.486;7.562;2022-08-06T13:19:15;1.55;;;0.43;;
31760;SDS011;18335;51.486;7.562;2022-08-06T13:21:43;3.28;;;0.65;;
31760;SDS011;18335;51.486;7.562;2022-08-06T13:24:11;0.38;;;0.30;;
31760;SDS011;18335;51.486;7.562;2022-08-06T13:26:48;1.85;;;0.40;;
31760;SDS011;18335;51.486;7.562;2022-08-06T13:29:17;1.38;;;0.45;;
31760;SDS011;18335;51.486;7.562;2022-08-06T13:31:45;1.88;;;0.40;;
31760;SDS011;18335;51.486;7.562;2022-08-06T13:34:15;0.65;;;0.30;;
31760;SDS011;18335;51.486;7.562;2022-08-06T13:36:43;1.75;;;0.40;;
31760;SDS011;18335;51.486;7.562;2022-08-06T13:39:19;1.42;;;0.38;;
31760;SDS011;18335;51.486;7.562;2022-08-06T13:41:47;1.30;;;0.40;;
31760;SDS011;18335;51.486;7.562;2022-08-06T13:44:31;1.60;;;0.45;;
31760;SDS011;18335;51.486;7.562;2022-08-06T13:46:59;0.73;;;0.30;;
31760;SDS011;18335;51.486;7.562;2022-08-06T13:49:28;1.52;;;0.30;;
31760;SDS011;18335;51.486;7.562;2022-08-06T13:51:55;1.52;;;0.60;;
31760;SDS011;18335;51.486;7.562;2022-08-06T13:54:22;1.30;;;0.45;;
31760;SDS011;18335;51.486;7.562;2022-08-06T13:56:50;3.30;;;0.40;;
31760;SDS011;18335;51.486;7.562;2022-08-06T13:59:18;1.88;;;0.60;;
31760;SDS011;18335;51.486;7.562;2022-08-06T14:01:45;0.80;;;0.30;;
31760;SDS011;18335;51.486;7.562;2022-08-06T14:04:13;2.70;;;0.30;;
31760;SDS011;18335;51.486;7.562;2022-08-06T14:06:42;1.40;;;0.60;;
31760;SDS011;18335;51.486;7.562;2022-08-06T14:09:10;1.98;;;0.38;;
31760;SDS011;18335;51.486;7.562;2022-08-06T14:11:37;0.75;;;0.47;;
31760;SDS011;18335;51.486;7.562;2022-08-06T14:14:04;0.85;;;0.28;;
31760;SDS011;18335;51.486;7.562;2022-08-06T14:16:31;0.88;;;0.38;;
31760;SDS011;18335;51.486;7.562;2022-08-06T14:18:57;0.50;;;0.40;;
31760;SDS011;18335;51.486;7.562;2022-08-06T14:21:24;2.25;;;0.50;;
31760;SDS011;18335;51.486;7.562;2022-08-06T14:23:52;1.23;;;0.52;;
31760;SDS011;18335;51.486;7.562;2022-08-06T14:26:19;1.08;;;0.40;;
31760;SDS011;18335;51.486;7.562;2022-08-06T14:28:45;1.02;;;0.22;;
31760;SDS011;18335;51.486;7.562;2022-08-06T14:31:12;3.08;;;0.60;;
31760;SDS011;18335;51.486;7.562;2022-08-06T14:33:39;3.92;;;0.30;;
31760;SDS011;18335;51.486;7.562;2022-08-06T14:36:06;2.72;;;0.45;;
31760;SDS011;18335;51.486;7.562;2022-08-06T14:38:33;1.10;;;0.55;;
31760;SDS011;18335;51.486;7.562;2022-08-06T14:41:02;0.80;;;0.40;;
31760;SDS011;18335;51.486;7.562;2022-08-06T14:43:46;1.70;;;0.20;;
31760;SDS011;18335;51.486;7.562;2022-08-06T14:46:30;1.65;;;0.50;;
31760;SDS011;18335;51.486;7.562;2022-08-06T14:48:58;2.58;;;0.40;;
31760;SDS011;18335;51.486;7.562;2022-08-06T14:51:25;2.47;;;0.30;;
31760;SDS011;18335;51.486;7.562;2022-08-06T14:53:52;3.03;;;0.57;;
31760;SDS011;18335;51.486;7.562;2022-08-06T14:56:20;3.20;;;0.40;;
31760;SDS011;18335;51.486;7.562;2022-08-06T14:58:47;2.13;;;0.30;;
31760;SDS011;18335;51.486;7.562;2022-08-06T15:01:14;2.00;;;0.45;;
31760;SDS011;18335;51.486;7.562;2022-08-06T15:03:40;1.83;;;0.52;;
31760;SDS011;18335;51.486;7.562;2022-08-06T15:06:07;3.42;;;0.40;;
31760;SDS011;18335;51.486;7.562;2022-08-06T15:08:34;1.05;;;0.30;;
31760;SDS011;18335;51.486;7.562;2022-08-06T15:11:02;0.98;;;0.38;;
31760;SDS011;18335;51.486;7.562;2022-08-06T15:13:31;1.05;;;0.30;;